Time;durP1;ratioP1;P1;durP2;ratioP2;P2;SDS_P1;SDS_P2;PMS_P1;PMS_P2;Temp;Humidity;BMP_temperature;BMP_pressure;BME280_temperature;BME280_humidity;BME280_pressure;Samples;Min_cycle;Max_cycle;Signal;HPM_P1;HPM_P2
2021/08/24 00:01:48;;;;;;;7.83;2.90;;;13.90;99.90;;;;;;5035157;28;20226;-61
2021/08/24 00:04:15;;;;;;;3.30;2.63;;;13.90;99.90;;;;;;5035098;28;20269;-61
2021/08/24 00:06:41;;;;;;;5.27;3.00;;;13.90;99.90;;;;;;5035277;28;20311;-61
2021/08/24 00:09:08;;;;;;;10.33;2.93;;;13.90;99.90;;;;;;5035256;28;20203;-61
2021/08/24 00:11:34;;;;;;;5.37;2.90;;;14.00;99.90;;;;;;5034815;28;20230;-61
2021/08/24 00:14:03;;;;;;;4.30;2.70;;;13.90;99.90;;;;;;5035085;28;20617;-61
2021/08/24 00:16:30;;;;;;;4.17;2.87;;;13.90;99.90;;;;;;5034849;28;20198;-61
2021/08/24 00:18:57;;;;;;;7.37;3.40;;;13.90;99.90;;;;;;5035233;28;20293;-61
2021/08/24 00:21:23;;;;;;;4.43;2.73;;;13.80;99.90;;;;;;5034878;28;20274;-61
2021/08/24 00:23:50;;;;;;;3.37;2.80;;;13.80;99.90;;;;;;5035166;28;20206;-61
2021/08/24 00:26:17;;;;;;;5.20;2.93;;;13.70;99.90;;;;;;5034800;28;20230;-61
2021/08/24 00:28:43;;;;;;;7.50;2.77;;;13.70;1.00;;;;;;5034911;28;20214;-61
2021/08/24 00:31:11;;;;;;;6.37;3.03;;;13.70;1.00;;;;;;5034673;28;20207;-61
2021/08/24 00:33:38;;;;;;;7.40;2.73;;;13.60;1.00;;;;;;5034796;28;20264;-61
2021/08/24 00:36:05;;;;;;;7.00;3.10;;;13.60;96.80;;;;;;5035322;28;20235;-61
2021/08/24 00:38:32;;;;;;;11.50;3.10;;;13.50;99.90;;;;;;5034892;28;20244;-61
2021/08/24 00:41:01;;;;;;;4.70;2.97;;;13.50;99.90;;;;;;5035166;28;20260;-61
2021/08/24 00:43:30;;;;;;;4.13;3.07;;;13.50;99.90;;;;;;5034571;28;20261;-61
2021/08/24 00:46:00;;;;;;;5.90;3.40;;;13.50;99.90;;;;;;5034689;28;20264;-61
2021/08/24 00:48:31;;;;;;;6.90;2.73;;;13.50;99.90;;;;;;5034931;28;20202;-61
2021/08/24 00:50:59;;;;;;;6.13;3.30;;;13.50;99.90;;;;;;5034221;28;20256;-61
2021/08/24 00:53:33;;;;;;;3.87;2.80;;;13.40;1.00;;;;;;5034239;28;20214;-61
2021/08/24 00:56:01;;;;;;;4.80;2.73;;;13.30;1.00;;;;;;5034406;28;20198;-61
2021/08/24 00:58:28;;;;;;;7.30;3.07;;;13.30;1.00;;;;;;5034358;28;20209;-61
2021/08/24 01:00:55;;;;;;;5.30;3.27;;;13.30;1.00;;;;;;5034111;28;20682;-61
2021/08/24 01:03:25;;;;;;;4.57;2.83;;;13.30;1.00;;;;;;5034296;28;20229;-61
2021/08/24 01:05:59;;;;;;;8.47;3.17;;;13.30;1.00;;;;;;5034204;28;20269;-61
2021/08/24 01:08:37;;;;;;;5.13;2.90;;;13.30;1.00;;;;;;5034265;28;20240;-61
2021/08/24 01:11:11;;;;;;;4.80;2.97;;;13.20;1.00;;;;;;5034205;28;20268;-61
2021/08/24 01:13:42;;;;;;;4.43;2.90;;;13.20;1.00;;;;;;5034228;28;20263;-61
2021/08/24 01:16:23;;;;;;;6.13;2.90;;;13.20;46.50;;;;;;5033907;28;20678;-61
2021/08/24 01:19:01;;;;;;;5.13;3.20;;;13.20;92.70;;;;;;5034306;28;20198;-61
2021/08/24 01:21:50;;;;;;;5.53;2.70;;;13.20;99.90;;;;;;5033908;28;20287;-61
2021/08/24 01:24:25;;;;;;;5.43;2.73;;;13.10;99.90;;;;;;5033843;28;20556;-61
2021/08/24 01:26:58;;;;;;;3.70;2.53;;;13.10;99.90;;;;;;5033658;28;20229;-61
2021/08/24 01:29:56;;;;;;;4.43;2.97;;;13.00;1.00;;;;;;5033706;28;20678;-61
2021/08/24 01:32:56;;;;;;;7.13;3.63;;;13.00;5.40;;;;;;5029021;28;20287;-61
2021/08/24 01:35:44;;;;;;;4.47;3.20;;;12.90;99.90;;;;;;5033555;28;20634;-61
2021/08/24 01:38:17;;;;;;;5.53;3.37;;;12.90;99.90;;;;;;5033756;28;20219;-61
2021/08/24 01:40:50;;;;;;;4.13;3.10;;;12.90;99.90;;;;;;5033700;28;20221;-61
2021/08/24 01:43:25;;;;;;;5.83;3.50;;;12.90;99.90;;;;;;5033545;28;20225;-61
2021/08/24 01:46:01;;;;;;;4.80;2.97;;;12.80;99.90;;;;;;5033661;28;20210;-61
2021/08/24 01:48:33;;;;;;;3.50;3.03;;;12.80;99.90;;;;;;5033786;28;20605;-61
2021/08/24 01:51:04;;;;;;;5.33;2.97;;;12.70;1.00;;;;;;5033273;28;20669;-61
2021/08/24 01:53:35;;;;;;;4.77;3.43;;;12.70;1.00;;;;;;5033039;28;20928;-61
2021/08/24 01:56:08;;;;;;;6.40;3.40;;;12.70;1.00;;;;;;5033301;28;20202;-61
2021/08/24 01:58:42;;;;;;;5.97;3.63;;;12.70;1.00;;;;;;5033190;28;20213;-61
2021/08/24 02:01:14;;;;;;;6.60;3.50;;;12.70;1.00;;;;;;5033359;28;20190;-61
2021/08/24 02:03:46;;;;;;;4.43;3.43;;;12.60;1.00;;;;;;5032244;28;20212;-61
2021/08/24 02:06:19;;;;;;;8.07;3.10;;;12.60;99.90;;;;;;5033145;28;20214;-60
2021/08/24 02:08:51;;;;;;;4.17;3.07;;;12.50;99.90;;;;;;5033419;28;20197;-59
2021/08/24 02:11:18;;;;;;;3.97;3.20;;;12.50;99.90;;;;;;5033060;28;20245;-61
2021/08/24 02:13:49;;;;;;;7.00;3.43;;;12.40;1.00;;;;;;5032954;28;20209;-61
2021/08/24 02:16:19;;;;;;;4.00;3.17;;;12.40;1.00;;;;;;5032693;28;20616;-61
2021/08/24 02:18:53;;;;;;;6.47;3.90;;;12.30;99.90;;;;;;5033099;28;20191;-61
2021/08/24 02:21:24;;;;;;;4.33;3.73;;;12.30;99.90;;;;;;5032639;28;20237;-61
2021/08/24 02:23:56;;;;;;;5.80;3.83;;;12.30;99.90;;;;;;5032549;28;20207;-61
2021/08/24 02:26:26;;;;;;;6.50;3.80;;;12.20;53.30;;;;;;5032712;28;20231;-61
2021/08/24 02:28:56;;;;;;;6.47;3.53;;;12.20;99.90;;;;;;5032801;28;20207;-60
2021/08/24 02:31:29;;;;;;;4.80;3.43;;;12.10;1.00;;;;;;5032620;28;20226;-60
2021/08/24 02:34:03;;;;;;;5.60;3.90;;;12.10;1.00;;;;;;5032778;28;20202;-61
2021/08/24 02:36:33;;;;;;;7.00;3.77;;;12.10;15.10;;;;;;5032750;28;20695;-61
2021/08/24 02:39:04;;;;;;;8.40;3.90;;;12.10;85.40;;;;;;5032670;28;20222;-61
2021/08/24 02:41:36;;;;;;;4.90;3.80;;;12.00;99.90;;;;;;5032440;28;20252;-61
2021/08/24 02:44:11;;;;;;;6.73;4.40;;;12.00;99.90;;;;;;5032185;28;20256;-61
2021/08/24 02:46:41;;;;;;;8.83;4.70;;;12.00;99.90;;;;;;5032150;28;20467;-61
2021/08/24 02:49:13;;;;;;;9.47;4.30;;;12.00;1.00;;;;;;5032374;28;20214;-61
2021/08/24 02:51:41;;;;;;;8.50;4.40;;;11.90;1.00;;;;;;5032494;28;20305;-60
2021/08/24 02:54:13;;;;;;;5.63;4.10;;;12.00;1.00;;;;;;5032010;28;20215;-61
2021/08/24 02:56:41;;;;;;;5.67;4.47;;;12.00;1.00;;;;;;5032487;28;20244;-59
2021/08/24 02:59:07;;;;;;;6.20;4.30;;;12.00;84.00;;;;;;5031896;28;20252;-61
2021/08/24 03:01:35;;;;;;;5.07;4.10;;;12.00;99.90;;;;;;5032250;28;20254;-61
2021/08/24 03:04:02;;;;;;;4.70;3.80;;;11.90;99.90;;;;;;5032180;28;20209;-60
2021/08/24 03:06:30;;;;;;;7.20;4.10;;;11.90;99.90;;;;;;5031941;28;20222;-61
2021/08/24 03:08:58;;;;;;;5.80;4.47;;;11.90;99.90;;;;;;5032013;28;20676;-61
2021/08/24 03:11:32;;;;;;;6.30;4.40;;;11.90;99.90;;;;;;5031832;28;20232;-60
2021/08/24 03:14:03;;;;;;;4.80;3.90;;;11.90;99.90;;;;;;5031606;28;20368;-61
2021/08/24 03:16:34;;;;;;;6.77;4.47;;;11.80;99.90;;;;;;5032038;28;20251;-61
2021/08/24 03:19:04;;;;;;;6.57;4.50;;;11.80;99.90;;;;;;5032127;28;20212;-60
2021/08/24 03:21:35;;;;;;;7.07;4.50;;;11.80;99.90;;;;;;5032255;28;20222;-62
2021/08/24 03:24:04;;;;;;;5.00;4.40;;;11.70;99.90;;;;;;5032063;28;20228;-62
2021/08/24 03:26:36;;;;;;;5.83;4.87;;;11.70;99.90;;;;;;5031877;28;20289;-62
2021/08/24 03:29:08;;;;;;;5.73;4.53;;;11.70;99.90;;;;;;5031971;28;20203;-62
2021/08/24 03:31:35;;;;;;;7.00;4.63;;;11.70;1.00;;;;;;5031677;28;20277;-61
2021/08/24 03:34:01;;;;;;;7.50;5.03;;;11.80;1.00;;;;;;5031644;28;20210;-62
2021/08/24 03:36:28;;;;;;;9.17;5.13;;;11.80;2.30;;;;;;5031737;28;20249;-62
2021/08/24 03:38:54;;;;;;;7.50;4.50;;;11.70;99.90;;;;;;5032081;28;20206;-59
2021/08/24 03:41:21;;;;;;;8.60;5.23;;;11.70;99.90;;;;;;5032977;28;20222;-59
2021/08/24 03:43:49;;;;;;;5.97;4.67;;;11.60;99.90;;;;;;5032472;28;20260;-59
2021/08/24 03:46:16;;;;;;;6.53;4.83;;;11.60;99.90;;;;;;5032533;28;20222;-59
2021/08/24 03:48:43;;;;;;;7.77;4.80;;;11.50;99.90;;;;;;5031586;28;20204;-59
2021/08/24 03:51:10;;;;;;;7.27;5.70;;;11.50;99.90;;;;;;5031348;28;20207;-59
2021/08/24 03:53:37;;;;;;;7.47;5.57;;;11.50;99.90;;;;;;5031416;28;20222;-59
2021/08/24 03:56:06;;;;;;;5.87;4.97;;;11.50;99.90;;;;;;5031739;28;20218;-59
2021/08/24 03:58:33;;;;;;;6.43;4.97;;;11.40;99.90;;;;;;5031806;28;20210;-59
2021/08/24 04:01:01;;;;;;;6.70;5.17;;;11.40;99.90;;;;;;5031676;28;20210;-59
2021/08/24 04:03:27;;;;;;;6.03;5.10;;;11.40;99.90;;;;;;5031712;28;20206;-59
2021/08/24 04:05:59;;;;;;;7.10;4.73;;;11.40;99.90;;;;;;5031264;28;20207;-59
2021/08/24 04:08:25;;;;;;;8.27;5.47;;;11.30;99.90;;;;;;5031704;28;20221;-60
2021/08/24 04:10:52;;;;;;;7.07;5.23;;;11.30;99.90;;;;;;5031496;28;20675;-59
2021/08/24 04:13:19;;;;;;;6.93;5.23;;;11.30;99.90;;;;;;5031739;28;20229;-59
2021/08/24 04:15:45;;;;;;;8.60;5.37;;;11.30;99.90;;;;;;5031589;28;20206;-59
2021/08/24 04:18:13;;;;;;;6.47;5.00;;;11.30;99.90;;;;;;5031317;28;20664;-58
2021/08/24 04:20:41;;;;;;;7.93;5.23;;;11.30;99.90;;;;;;5031560;28;20233;-59
2021/08/24 04:23:07;;;;;;;7.60;5.70;;;11.20;99.90;;;;;;5031425;28;20230;-59
2021/08/24 04:25:34;;;;;;;8.57;6.30;;;11.20;99.90;;;;;;5031413;28;20212;-59
2021/08/24 04:28:01;;;;;;;9.23;6.33;;;11.20;99.90;;;;;;5034558;28;20249;-57
2021/08/24 04:30:27;;;;;;;10.33;6.20;;;11.10;99.90;;;;;;5035105;28;20210;-62
2021/08/24 04:32:54;;;;;;;10.63;7.17;;;11.10;99.90;;;;;;5034469;28;20781;-62
2021/08/24 04:35:22;;;;;;;7.40;6.13;;;11.20;99.90;;;;;;5034788;28;20273;-62
2021/08/24 04:37:48;;;;;;;7.63;5.97;;;11.20;99.90;;;;;;5034902;28;20199;-61
2021/08/24 04:40:15;;;;;;;9.00;6.10;;;11.20;99.90;;;;;;5033789;28;20663;-62
2021/08/24 04:42:42;;;;;;;9.80;6.50;;;11.30;99.90;;;;;;5034405;28;20643;-62
2021/08/24 04:45:11;;;;;;;7.87;6.93;;;11.30;99.90;;;;;;5034436;28;20210;-62
2021/08/24 04:47:38;;;;;;;8.73;6.73;;;11.30;99.90;;;;;;5034599;28;20284;-61
2021/08/24 04:50:06;;;;;;;9.43;6.93;;;11.30;99.90;;;;;;5034656;28;20206;-62
2021/08/24 04:52:34;;;;;;;10.10;6.90;;;11.40;1.00;;;;;;5034439;28;20646;-61
2021/08/24 04:55:01;;;;;;;10.23;7.00;;;11.40;1.00;;;;;;5034305;28;20269;-61
2021/08/24 04:57:28;;;;;;;7.63;6.23;;;11.40;1.00;;;;;;5034310;28;20260;-62
2021/08/24 04:59:54;;;;;;;11.07;6.70;;;11.40;1.00;;;;;;5034016;28;20667;-62
2021/08/24 05:02:21;;;;;;;12.67;6.43;;;11.30;1.00;;;;;;5034526;28;20234;-60
2021/08/24 05:04:47;;;;;;;8.67;6.67;;;11.40;1.00;;;;;;5034145;28;20218;-61
2021/08/24 05:07:14;;;;;;;8.47;6.33;;;11.40;1.00;;;;;;5034150;28;20252;-62
2021/08/24 05:09:42;;;;;;;8.33;7.07;;;11.40;1.00;;;;;;5034061;28;20623;-62
2021/08/24 05:12:10;;;;;;;10.80;7.07;;;11.40;1.00;;;;;;5034214;28;20225;-62
2021/08/24 05:14:36;;;;;;;12.37;7.70;;;11.40;1.00;;;;;;5033779;28;20203;-62
2021/08/24 05:17:03;;;;;;;10.27;7.83;;;11.40;1.00;;;;;;5034158;28;20676;-62
2021/08/24 05:19:30;;;;;;;11.63;7.57;;;11.40;1.00;;;;;;5034115;28;20252;-62
2021/08/24 05:21:57;;;;;;;11.27;8.73;;;11.40;1.00;;;;;;5033945;28;20651;-62
2021/08/24 05:24:23;;;;;;;13.93;9.93;;;11.50;1.00;;;;;;5034050;28;20206;-62
2021/08/24 05:26:51;;;;;;;14.53;10.53;;;11.60;1.00;;;;;;5033608;28;20225;-60
2021/08/24 05:29:18;;;;;;;13.77;11.07;;;11.60;1.00;;;;;;5033608;28;20802;-61
2021/08/24 05:31:45;;;;;;;15.70;12.70;;;11.70;1.00;;;;;;5033682;28;20226;-58
2021/08/24 05:34:12;;;;;;;15.00;11.37;;;11.70;1.00;;;;;;5033660;28;20207;-61
2021/08/24 05:36:39;;;;;;;15.23;11.20;;;11.80;1.00;;;;;;5033498;28;20206;-61
2021/08/24 05:39:06;;;;;;;14.03;10.70;;;11.80;1.00;;;;;;5033568;28;20213;-60
2021/08/24 05:41:32;;;;;;;12.40;10.00;;;11.90;1.00;;;;;;5033282;28;20222;-61
2021/08/24 05:44:00;;;;;;;12.93;11.07;;;11.90;1.00;;;;;;5033542;28;20213;-62
2021/08/24 05:46:27;;;;;;;13.63;10.23;;;12.00;1.00;;;;;;5033622;28;20214;-61
2021/08/24 05:48:54;;;;;;;14.50;10.63;;;12.00;1.00;;;;;;5033417;28;20207;-62
2021/08/24 05:51:22;;;;;;;14.90;10.27;;;12.10;1.00;;;;;;5033341;28;20879;-62
2021/08/24 05:53:49;;;;;;;12.37;10.80;;;12.10;1.00;;;;;;5033032;28;20218;-60
2021/08/24 05:56:19;;;;;;;16.73;10.73;;;12.20;1.00;;;;;;5033101;28;20627;-60
2021/08/24 05:58:46;;;;;;;14.20;10.73;;;12.20;1.00;;;;;;5033120;28;20742;-61
2021/08/24 06:01:20;;;;;;;13.97;10.97;;;12.20;1.00;;;;;;5032993;28;20749;-59
2021/08/24 06:03:47;;;;;;;15.47;11.37;;;12.30;1.00;;;;;;5033096;28;20209;-61
2021/08/24 06:06:19;;;;;;;15.33;11.43;;;12.30;1.00;;;;;;5033037;28;20206;-61
2021/08/24 06:08:45;;;;;;;13.80;11.23;;;12.40;1.00;;;;;;5032682;28;20226;-60
2021/08/24 06:11:24;;;;;;;18.90;11.83;;;12.50;1.00;;;;;;5033037;28;20233;-61
2021/08/24 06:13:51;;;;;;;13.80;11.00;;;12.60;1.00;;;;;;5032810;28;20209;-60
2021/08/24 06:16:19;;;;;;;15.87;10.63;;;12.60;1.00;;;;;;5032809;28;20257;-60
2021/08/24 06:18:46;;;;;;;15.83;10.67;;;12.70;1.00;;;;;;5032750;28;20268;-61
2021/08/24 06:21:13;;;;;;;15.53;12.20;;;12.80;99.90;;;;;;5032472;28;20206;-61
2021/08/24 06:23:40;;;;;;;15.67;11.00;;;12.90;99.90;;;;;;5032717;28;20209;-61
2021/08/24 06:26:08;;;;;;;15.90;11.23;;;13.00;99.90;;;;;;5032761;28;20646;-60
2021/08/24 06:28:35;;;;;;;16.13;10.70;;;13.10;99.90;;;;;;5032650;28;20300;-60
2021/08/24 06:31:02;;;;;;;14.27;10.63;;;13.20;99.90;;;;;;5032468;28;20559;-61
2021/08/24 06:33:35;;;;;;;13.27;10.97;;;13.30;99.90;;;;;;5032451;28;20626;-61
2021/08/24 06:36:02;;;;;;;13.50;10.37;;;13.30;1.00;;;;;;5032626;28;20197;-61
2021/08/24 06:38:29;;;;;;;16.63;11.23;;;13.40;99.90;;;;;;5032401;28;20204;-61
2021/08/24 06:40:56;;;;;;;13.37;10.47;;;13.40;2.90;;;;;;5032495;28;20224;-61
2021/08/24 06:43:23;;;;;;;15.40;10.63;;;13.40;1.00;;;;;;5032194;28;20222;-61
2021/08/24 06:45:50;;;;;;;13.97;10.60;;;13.40;99.90;;;;;;5032327;28;20204;-61
2021/08/24 06:48:17;;;;;;;15.63;10.57;;;13.40;99.90;;;;;;5030339;28;20221;-61
2021/08/24 06:50:45;;;;;;;13.33;10.53;;;13.50;99.90;;;;;;5032141;28;20210;-59
2021/08/24 06:53:11;;;;;;;13.97;10.13;;;13.50;99.90;;;;;;5047988;28;20241;-59
2021/08/24 06:55:39;;;;;;;15.80;9.60;;;13.50;3.70;;;;;;5032107;28;20256;-61
2021/08/24 06:58:07;;;;;;;11.63;9.43;;;13.70;1.00;;;;;;5031997;28;20201;-61
2021/08/24 07:00:34;;;;;;;12.13;8.67;;;13.70;99.90;;;;;;5031988;28;20665;-62
2021/08/24 07:03:01;;;;;;;11.17;8.30;;;13.80;1.00;;;;;;5031508;28;20236;-62
2021/08/24 07:05:30;;;;;;;12.70;8.20;;;13.90;1.00;;;;;;5032113;28;20203;-61
2021/08/24 07:07:58;;;;;;;13.03;7.63;;;14.00;1.00;;;;;;5031748;28;20271;-61
2021/08/24 07:10:26;;;;;;;7.93;7.00;;;14.10;99.90;;;;;;5031845;28;20252;-61
2021/08/24 07:12:52;;;;;;;9.60;6.90;;;14.20;99.90;;;;;;5031715;28;20230;-61
2021/08/24 07:15:22;;;;;;;8.37;6.87;;;14.30;99.90;;;;;;5031322;28;20214;-61
2021/08/24 07:17:51;;;;;;;12.03;6.87;;;14.40;1.00;;;;;;5031931;28;20210;-60
2021/08/24 07:20:19;;;;;;;10.23;6.80;;;14.50;1.00;;;;;;5031918;28;20240;-62
2021/08/24 07:22:47;;;;;;;8.83;6.13;;;14.60;99.90;;;;;;5031725;28;20664;-61
2021/08/24 07:25:19;;;;;;;7.40;5.97;;;14.60;99.90;;;;;;5031379;28;20209;-61
2021/08/24 07:27:46;;;;;;;7.63;5.83;;;14.70;1.00;;;;;;5031560;28;20218;-62
2021/08/24 07:30:14;;;;;;;14.67;9.77;;;14.80;99.90;;;;;;5031418;28;20210;-61
2021/08/24 07:32:40;;;;;;;9.47;5.97;;;14.90;99.90;;;;;;5031781;28;20292;-61
2021/08/24 07:35:08;;;;;;;7.37;4.97;;;14.90;2.70;;;;;;5031552;28;20209;-62
2021/08/24 07:37:35;;;;;;;8.97;6.27;;;15.00;18.40;;;;;;5031700;28;20202;-61
2021/08/24 07:40:02;;;;;;;7.27;5.60;;;15.10;38.00;;;;;;5031731;28;20272;-61
2021/08/24 07:42:30;;;;;;;7.60;4.67;;;15.20;99.90;;;;;;5031239;28;20687;-61
2021/08/24 07:44:57;;;;;;;7.60;5.50;;;15.40;1.00;;;;;;5031623;28;20272;-58
2021/08/24 07:47:24;;;;;;;10.20;5.27;;;15.50;99.90;;;;;;5027212;28;20222;-60
2021/08/24 07:49:51;;;;;;;9.03;4.90;;;15.60;99.90;;;;;;5031142;28;20210;-63
2021/08/24 07:52:18;;;;;;;5.83;4.40;;;15.70;99.90;;;;;;5030678;28;20230;-63
2021/08/24 07:54:45;;;;;;;8.33;5.37;;;15.80;99.90;;;;;;5030781;28;20214;-62
2021/08/24 07:57:12;;;;;;;6.67;5.00;;;15.80;7.80;;;;;;5030698;28;20821;-62
2021/08/24 07:59:40;;;;;;;9.50;5.70;;;15.80;23.70;;;;;;5031290;28;20216;-62
2021/08/24 08:02:07;;;;;;;8.43;5.03;;;15.80;7.50;;;;;;5033587;28;20272;-63
2021/08/24 08:04:33;;;;;;;9.00;5.13;;;16.00;76.90;;;;;;5034725;28;20202;-63
2021/08/24 08:07:00;;;;;;;7.47;4.63;;;16.00;1.00;;;;;;5034657;28;20198;-63
2021/08/24 08:09:26;;;;;;;9.33;5.00;;;16.00;1.00;;;;;;5034507;28;20301;-62
2021/08/24 08:11:53;;;;;;;8.20;4.30;;;16.00;1.00;;;;;;5034412;28;20245;-62
2021/08/24 08:14:20;;;;;;;6.60;4.10;;;16.00;1.00;;;;;;5034652;28;20256;-62
2021/08/24 08:16:49;;;;;;;5.43;3.90;;;16.10;1.00;;;;;;5034511;28;20256;-63
2021/08/24 08:19:16;;;;;;;8.73;4.20;;;16.30;1.00;;;;;;5034708;28;20209;-63
2021/08/24 08:21:43;;;;;;;4.23;3.13;;;16.30;1.00;;;;;;5034462;28;20227;-62
2021/08/24 08:24:10;;;;;;;6.17;3.53;;;16.30;1.00;;;;;;5034197;28;20276;-63
2021/08/24 08:26:37;;;;;;;4.73;3.27;;;16.50;1.00;;;;;;5034235;28;20261;-63
2021/08/24 08:29:08;;;;;;;5.43;3.63;;;16.70;1.00;;;;;;5034407;28;20707;-65
2021/08/24 08:31:35;;;;;;;7.47;3.80;;;16.80;1.00;;;;;;5034182;28;20773;-65
2021/08/24 08:34:03;;;;;;;5.07;3.33;;;16.90;1.00;;;;;;5034100;28;20257;-64
2021/08/24 08:36:30;;;;;;;6.03;3.10;;;17.00;1.00;;;;;;5033846;28;20269;-64
2021/08/24 08:38:57;;;;;;;4.37;2.70;;;17.10;1.00;;;;;;5034121;28;20297;-64
2021/08/24 08:41:32;;;;;;;3.93;2.43;;;17.30;1.00;;;;;;5034341;28;20237;-64
2021/08/24 08:44:02;;;;;;;3.73;2.13;;;17.30;99.90;;;;;;5034153;28;20293;-65
2021/08/24 08:46:39;;;;;;;3.87;2.13;;;17.40;99.90;;;;;;5033953;28;20210;-64
2021/08/24 08:49:19;;;;;;;4.33;2.03;;;17.60;99.90;;;;;;5033942;28;20317;-64
2021/08/24 08:51:53;;;;;;;4.43;2.00;;;17.70;99.90;;;;;;5034006;28;20222;-65
2021/08/24 08:54:31;;;;;;;3.33;1.80;;;17.80;99.90;;;;;;5033750;28;20222;-66
2021/08/24 08:57:02;;;;;;;5.00;2.10;;;17.80;99.90;;;;;;5033692;28;20265;-66
2021/08/24 08:59:37;;;;;;;4.93;2.00;;;17.90;99.90;;;;;;5033700;28;20264;-65
2021/08/24 09:02:30;;;;;;;3.87;2.17;;;18.00;99.90;;;;;;5034203;28;20230;-66
2021/08/24 09:05:00;;;;;;;4.10;2.27;;;18.00;99.90;;;;;;5033651;28;20212;-65
2021/08/24 09:07:35;;;;;;;5.00;2.27;;;18.10;99.90;;;;;;5033511;28;20202;-67
2021/08/24 09:10:03;;;;;;;6.53;1.90;;;18.20;99.90;;;;;;5033717;28;20617;-65
2021/08/24 09:12:31;;;;;;;11.40;6.13;;;18.20;99.90;;;;;;5033313;28;20285;-65
2021/08/24 09:15:00;;;;;;;4.93;3.07;;;18.30;99.90;;;;;;5033532;28;20583;-66
2021/08/24 09:17:31;;;;;;;8.37;2.00;;;18.50;99.90;;;;;;5033240;28;20624;-65
2021/08/24 09:20:04;;;;;;;5.43;2.23;;;18.50;99.90;;;;;;5033729;28;20276;-65
2021/08/24 09:22:31;;;;;;;2.67;1.83;;;18.40;99.90;;;;;;5033197;28;20226;-64
2021/08/24 09:24:58;;;;;;;3.97;2.20;;;18.50;99.90;;;;;;5033560;28;20218;-65
2021/08/24 09:27:38;;;;;;;3.17;1.67;;;18.30;99.90;;;;;;5033241;28;20232;-66
2021/08/24 09:30:06;;;;;;;5.23;2.50;;;18.40;99.90;;;;;;5033581;28;20671;-65
2021/08/24 09:32:33;;;;;;;4.07;2.00;;;18.30;99.90;;;;;;5033424;28;20226;-65
2021/08/24 09:35:12;;;;;;;3.97;2.33;;;18.40;99.90;;;;;;5032973;28;20743;-65
2021/08/24 09:37:40;;;;;;;3.97;2.27;;;18.30;99.90;;;;;;5034059;28;20667;-66
2021/08/24 09:40:08;;;;;;;3.87;2.60;;;18.20;99.90;;;;;;5034212;28;20622;-67
2021/08/24 09:42:38;;;;;;;4.87;2.33;;;18.30;99.90;;;;;;5033363;28;20292;-66
2021/08/24 09:45:28;;;;;;;3.40;2.17;;;18.50;99.90;;;;;;5033155;28;20272;-66
2021/08/24 09:48:06;;;;;;;5.37;2.63;;;18.60;99.90;;;;;;5033536;28;20679;-66
2021/08/24 09:50:37;;;;;;;4.17;2.47;;;18.50;99.90;;;;;;5033194;28;20209;-66
2021/08/24 09:53:05;;;;;;;6.03;2.60;;;18.60;99.90;;;;;;5032905;28;20284;-66
2021/08/24 09:55:37;;;;;;;3.27;2.30;;;18.80;99.90;;;;;;5032818;28;20210;-66
2021/08/24 09:58:07;;;;;;;3.30;2.10;;;18.80;99.90;;;;;;5032624;28;20207;-66
2021/08/24 10:00:40;;;;;;;8.40;2.80;;;18.70;99.90;;;;;;5032878;28;20210;-63
2021/08/24 10:03:21;;;;;;;4.07;2.30;;;18.60;99.90;;;;;;5032931;28;20715;-63
2021/08/24 10:05:49;;;;;;;4.03;2.50;;;18.50;99.90;;;;;;5033056;28;20289;-63
2021/08/24 10:08:37;;;;;;;3.93;2.10;;;18.50;99.90;;;;;;5032624;28;20233;-63
2021/08/24 10:11:12;;;;;;;3.73;2.23;;;18.70;99.90;;;;;;5028291;28;20349;-63
2021/08/24 10:13:41;;;;;;;4.93;2.30;;;18.90;99.90;;;;;;5032743;28;20210;-63
2021/08/24 10:16:12;;;;;;;5.40;2.50;;;19.00;99.90;;;;;;5033034;28;20233;-63
2021/08/24 10:18:41;;;;;;;5.00;2.40;;;19.20;99.90;;;;;;5032648;28;20264;-63
2021/08/24 10:21:14;;;;;;;5.27;2.73;;;19.30;99.90;;;;;;5033017;28;20213;-63
2021/08/24 10:23:52;;;;;;;5.60;2.87;;;19.20;99.90;;;;;;5032128;28;20252;-62
2021/08/24 10:26:25;;;;;;;4.47;2.47;;;19.30;99.90;;;;;;5032870;28;20210;-61
2021/08/24 10:28:55;;;;;;;4.53;2.90;;;19.30;99.90;;;;;;5032561;28;20959;-62
2021/08/24 10:31:29;;;;;;;6.60;2.43;;;19.30;99.90;;;;;;5032469;28;20280;-62
2021/08/24 10:34:00;;;;;;;3.57;2.13;;;19.30;99.90;;;;;;5031963;28;20615;-61
2021/08/24 10:36:33;;;;;;;5.80;2.80;;;19.20;99.90;;;;;;5032569;28;20675;-62
2021/08/24 10:39:03;;;;;;;4.73;2.87;;;19.30;99.90;;;;;;5032763;28;20283;-62
2021/08/24 10:41:35;;;;;;;4.50;2.70;;;19.20;99.90;;;;;;5032298;28;20273;-62
2021/08/24 10:44:07;;;;;;;4.27;2.20;;;19.20;99.90;;;;;;5032306;28;20210;-62
2021/08/24 10:46:54;;;;;;;4.53;2.70;;;19.20;99.90;;;;;;5032558;28;20214;-62
2021/08/24 10:49:21;;;;;;;4.57;2.87;;;19.50;99.90;;;;;;5032227;28;20230;-62
2021/08/24 10:52:00;;;;;;;3.47;2.53;;;19.60;99.90;;;;;;5032051;28;20230;-61
2021/08/24 10:54:41;;;;;;;3.73;2.37;;;19.60;99.90;;;;;;5031886;28;20213;-63
2021/08/24 10:57:25;;;;;;;4.60;2.37;;;19.60;99.90;;;;;;5031877;28;20206;-62
2021/08/24 11:00:01;;;;;;;3.50;2.00;;;19.60;99.90;;;;;;5032123;28;20207;-62
2021/08/24 11:02:41;;;;;;;4.07;2.27;;;19.70;99.90;;;;;;5031890;28;20755;-61
2021/08/24 11:05:25;;;;;;;3.67;1.70;;;19.60;99.90;;;;;;5031647;28;20675;-62
2021/08/24 11:08:02;;;;;;;3.60;2.20;;;19.40;99.90;;;;;;5031816;28;20729;-61
2021/08/24 11:10:39;;;;;;;3.13;1.77;;;19.30;99.90;;;;;;5031986;28;20668;-61
2021/08/24 11:13:18;;;;;;;3.87;2.00;;;19.20;99.90;;;;;;5031856;28;20287;-61
2021/08/24 11:15:50;;;;;;;5.33;2.40;;;19.30;99.90;;;;;;5031687;28;20210;-62
2021/08/24 11:18:27;;;;;;;4.53;2.17;;;19.50;99.90;;;;;;5031839;28;20210;-61
2021/08/24 11:21:06;;;;;;;5.40;2.10;;;19.70;99.90;;;;;;5031769;28;20236;-62
2021/08/24 11:23:51;;;;;;;4.17;1.70;;;19.50;99.90;;;;;;5031414;28;20758;-62
2021/08/24 11:26:23;;;;;;;4.73;2.07;;;19.50;99.90;;;;;;5032015;28;20667;-62
2021/08/24 11:29:03;;;;;;;3.50;2.00;;;19.60;99.90;;;;;;5031823;28;20226;-62
2021/08/24 11:31:36;;;;;;;5.07;1.83;;;19.50;99.90;;;;;;5031644;28;20280;-63
2021/08/24 11:34:08;;;;;;;3.77;2.00;;;19.50;99.90;;;;;;5031478;28;20256;-62
2021/08/24 11:36:38;;;;;;;5.63;2.37;;;19.60;99.90;;;;;;5035105;28;20206;-62
2021/08/24 11:39:18;;;;;;;4.00;2.00;;;19.90;99.90;;;;;;5035800;28;20260;-64
2021/08/24 11:41:47;;;;;;;4.00;1.87;;;19.90;99.90;;;;;;5035709;28;20328;-62
2021/08/24 11:44:18;;;;;;;4.97;2.00;;;19.70;99.90;;;;;;5035041;28;20313;-62
2021/08/24 11:46:52;;;;;;;4.40;1.93;;;19.80;99.90;;;;;;5035860;28;20256;-61
2021/08/24 11:49:24;;;;;;;5.53;2.30;;;19.80;99.90;;;;;;5032177;28;20698;-63
2021/08/24 11:52:00;;;;;;;5.80;2.20;;;20.00;99.90;;;;;;5035984;28;20238;-64
2021/08/24 11:54:40;;;;;;;3.00;2.30;;;20.10;99.90;;;;;;5034942;28;20227;-64
2021/08/24 11:57:12;;;;;;;3.80;2.03;;;20.20;99.90;;;;;;5035434;28;20201;-64
2021/08/24 11:59:44;;;;;;;4.83;2.10;;;20.20;99.90;;;;;;5034167;28;20202;-63
2021/08/24 12:02:16;;;;;;;6.53;2.70;;;20.10;99.90;;;;;;5034166;28;20234;-65
2021/08/24 12:04:45;;;;;;;4.67;2.27;;;20.00;99.90;;;;;;5034868;28;20256;-65
2021/08/24 12:07:23;;;;;;;3.63;2.57;;;19.80;99.90;;;;;;5034593;28;20745;-64
2021/08/24 12:09:54;;;;;;;9.07;2.30;;;19.80;99.90;;;;;;5034642;28;20222;-64
2021/08/24 12:12:57;;;;;;;5.30;2.17;;;19.80;99.90;;;;;;5034771;28;20227;-66
2021/08/24 12:15:35;;;;;;;5.57;2.10;;;19.80;99.90;;;;;;5031022;28;20213;-64
2021/08/24 12:18:08;;;;;;;4.10;2.07;;;19.90;99.90;;;;;;5034611;28;20214;-64
2021/08/24 12:20:39;;;;;;;6.13;2.00;;;20.10;99.90;;;;;;5034482;28;20198;-63
2021/08/24 12:23:09;;;;;;;3.70;2.03;;;20.20;99.90;;;;;;5034585;28;20276;-64
2021/08/24 12:25:39;;;;;;;4.53;1.97;;;20.50;99.90;;;;;;5034458;28;20237;-63
2021/08/24 12:28:22;;;;;;;3.53;2.37;;;20.50;99.90;;;;;;5034037;28;20210;-64
2021/08/24 12:31:12;;;;;;;4.13;2.10;;;20.60;99.90;;;;;;5033194;28;20292;-64
2021/08/24 12:33:41;;;;;;;16.47;2.63;;;20.80;99.90;;;;;;5028801;28;20210;-65
2021/08/24 12:36:53;;;;;;;3.30;2.10;;;20.90;99.90;;;;;;5034105;28;20206;-64
2021/08/24 12:39:38;;;;;;;4.73;2.10;;;20.80;99.90;;;;;;5026313;28;20272;-67
2021/08/24 12:42:19;;;;;;;2.97;1.83;;;20.80;99.90;;;;;;5034259;28;20230;-63
2021/08/24 12:44:48;;;;;;;6.43;2.00;;;20.70;99.90;;;;;;5033829;28;20651;-64
2021/08/24 12:47:35;;;;;;;8.73;2.60;;;20.40;99.90;;;;;;5033556;28;20207;-64
2021/08/24 12:50:43;;;;;;;3.57;1.90;;;20.50;99.90;;;;;;5033840;28;20234;-63
2021/08/24 12:53:48;;;;;;;6.90;2.20;;;20.50;99.90;;;;;;5033781;28;20238;-64
2021/08/24 12:56:50;;;;;;;3.70;2.00;;;20.50;99.90;;;;;;5033972;28;20248;-64
2021/08/24 12:59:43;;;;;;;5.13;1.90;;;20.60;99.90;;;;;;5029926;28;20247;-64
2021/08/24 13:02:27;;;;;;;4.87;2.10;;;20.40;99.90;;;;;;5015025;28;20226;-64
2021/08/24 13:04:57;;;;;;;6.57;2.40;;;20.20;99.90;;;;;;5033599;28;20210;-64
2021/08/24 13:07:34;;;;;;;3.60;2.20;;;20.30;99.90;;;;;;5033452;28;20756;-65
2021/08/24 13:10:18;;;;;;;4.53;2.70;;;20.60;99.90;;;;;;5033727;28;20332;-64